Time;durP1;ratioP1;P1;durP2;ratioP2;P2;SDS_P1;SDS_P2;PMS_P1;PMS_P2;Temp;Humidity;BMP_temperature;BMP_pressure;BME280_temperature;BME280_humidity;BME280_pressure;Samples;Min_cycle;Max_cycle;Signal;HPM_P1;HPM_P2
2021/12/22 00:00:14;;;;;;;26.70;14.15;;;-0.90;99.90;;;;;;5044049;28;20083;-61
2021/12/22 00:02:46;;;;;;;23.10;14.50;;;-0.90;99.90;;;;;;5032572;28;20048;-61
2021/12/22 00:05:24;;;;;;;28.77;14.98;;;-0.90;99.90;;;;;;5064767;28;20041;-61
2021/12/22 00:07:49;;;;;;;;;;;-0.90;99.90;;;;;;5046801;28;20045;-61
2021/12/22 00:10:16;;;;;;;22.75;14.40;;;-0.90;99.90;;;;;;5035778;28;19928;-61
2021/12/22 00:12:42;;;;;;;;;;;-1.00;99.90;;;;;;5028263;28;20374;-61
2021/12/22 00:15:08;;;;;;;23.50;14.35;;;-1.00;99.90;;;;;;5043343;28;19927;-61
2021/12/22 00:17:34;;;;;;;;;;;-1.00;99.90;;;;;;5045006;28;20049;-61
2021/12/22 00:20:00;;;;;;;21.98;13.80;;;-1.00;99.90;;;;;;5055911;28;19932;-61
2021/12/22 00:22:25;;;;;;;28.25;15.50;;;-1.10;99.90;;;;;;5035964;28;20056;-61
2021/12/22 00:24:51;;;;;;;28.10;14.37;;;-1.10;99.90;;;;;;5064417;28;20057;-62
2021/12/22 00:27:17;;;;;;;23.47;14.30;;;-1.10;99.90;;;;;;5046480;28;20065;-61
2021/12/22 00:29:46;;;;;;;23.07;14.67;;;-1.10;99.90;;;;;;5064393;28;20102;-61
2021/12/22 00:32:15;;;;;;;25.58;15.10;;;-1.20;99.90;;;;;;5029012;28;20111;-61
2021/12/22 00:34:51;;;;;;;24.35;15.50;;;-1.20;99.90;;;;;;5037075;28;20057;-61
2021/12/22 00:37:22;;;;;;;27.10;16.55;;;-1.20;99.90;;;;;;5064003;28;20041;-61
2021/12/22 00:39:48;;;;;;;26.30;15.85;;;-1.20;99.90;;;;;;5064529;28;20481;-61
2021/12/22 00:42:15;;;;;;;27.27;16.35;;;-1.20;99.90;;;;;;5060859;28;20045;-61
2021/12/22 00:44:43;;;;;;;26.15;15.52;;;-1.20;99.90;;;;;;5046208;28;20041;-61
2021/12/22 00:47:09;;;;;;;26.15;14.75;;;-1.30;99.90;;;;;;5045681;28;20174;-61
2021/12/22 00:49:35;;;;;;;26.25;15.05;;;-1.30;99.90;;;;;;5064029;28;20123;-61
2021/12/22 00:52:01;;;;;;;24.98;15.48;;;-1.30;99.90;;;;;;5058647;28;20053;-61
2021/12/22 00:54:27;;;;;;;21.45;14.70;;;-1.30;99.90;;;;;;5056665;28;20117;-61
2021/12/22 00:56:56;;;;;;;25.97;14.77;;;-1.30;99.90;;;;;;5064020;28;20049;-61
2021/12/22 00:59:21;;;;;;;28.92;15.43;;;-1.30;99.90;;;;;;5045518;28;20898;-61
2021/12/22 01:01:47;;;;;;;22.07;13.90;;;-1.40;99.90;;;;;;5045438;28;20044;-61
2021/12/22 01:04:13;;;;;;;24.10;15.07;;;-1.40;99.90;;;;;;5038976;28;20563;-61
2021/12/22 01:06:39;;;;;;;20.63;14.48;;;-1.40;99.90;;;;;;5045485;28;20041;-61
2021/12/22 01:09:05;;;;;;;23.33;14.67;;;-1.40;99.90;;;;;;5063648;28;20040;-61
2021/12/22 01:11:31;;;;;;;;;;;-1.40;99.90;;;;;;5045952;28;20111;-61
2021/12/22 01:13:57;;;;;;;22.90;14.43;;;-1.50;99.90;;;;;;5052553;28;19925;-61
2021/12/22 01:16:23;;;;;;;30.92;14.65;;;-1.50;99.90;;;;;;5036313;28;20061;-61
2021/12/22 01:18:49;;;;;;;21.13;14.20;;;-1.50;99.90;;;;;;5070410;28;20049;-61
2021/12/22 01:21:29;;;;;;;22.10;14.15;;;-1.50;99.90;;;;;;5030124;28;20072;-61
2021/12/22 01:24:09;;;;;;;24.42;14.90;;;-1.50;99.90;;;;;;5054244;28;20057;-61
2021/12/22 01:26:40;;;;;;;22.77;14.98;;;-1.50;99.90;;;;;;5045160;28;20400;-61
2021/12/22 01:29:06;;;;;;;26.40;15.40;;;-1.50;99.90;;;;;;5045466;28;20495;-61
2021/12/22 01:31:32;;;;;;;22.95;14.35;;;-1.50;99.90;;;;;;5063491;28;20063;-61
2021/12/22 01:33:57;;;;;;;22.90;14.17;;;-1.50;99.90;;;;;;5044549;28;20076;-61
2021/12/22 01:36:23;;;;;;;24.13;14.40;;;-1.60;99.90;;;;;;5042984;28;20036;-61
2021/12/22 01:38:48;;;;;;;20.73;14.03;;;-1.60;99.90;;;;;;5024384;28;20153;-61
2021/12/22 01:41:14;;;;;;;24.47;15.50;;;-1.60;99.90;;;;;;5046824;28;20096;-61
2021/12/22 01:43:40;;;;;;;22.35;14.23;;;-1.60;99.90;;;;;;5025245;28;20045;-61
2021/12/22 01:46:30;;;;;;;28.85;15.05;;;-1.60;99.90;;;;;;5049259;28;20049;-61
2021/12/22 01:49:11;;;;;;;28.60;14.10;;;-1.60;99.90;;;;;;5024943;28;20571;-62
2021/12/22 01:52:00;;;;;;;19.27;13.80;;;-1.60;99.90;;;;;;5015174;28;20433;-61
2021/12/22 01:54:46;;;;;;;22.00;13.40;;;-1.60;99.90;;;;;;5045005;28;20102;-61
2021/12/22 01:57:13;;;;;;;29.55;14.05;;;-1.60;99.90;;;;;;5055889;28;20048;-61
2021/12/22 01:59:41;;;;;;;22.25;14.05;;;-1.60;99.90;;;;;;5044925;28;20124;-62
2021/12/22 02:02:10;;;;;;;22.13;13.88;;;-1.60;99.90;;;;;;5043796;28;20049;-61
2021/12/22 02:04:38;;;;;;;22.52;14.93;;;-1.70;99.90;;;;;;5050997;28;20049;-61
2021/12/22 02:07:05;;;;;;;23.90;14.43;;;-1.70;99.90;;;;;;5043605;28;20159;-61
2021/12/22 02:09:51;;;;;;;24.70;14.90;;;-1.70;99.90;;;;;;5044658;28;20083;-61
2021/12/22 02:12:16;;;;;;;25.00;13.77;;;-1.70;99.90;;;;;;5044233;28;20057;-61
2021/12/22 02:14:43;;;;;;;25.83;15.10;;;-1.70;99.90;;;;;;5044691;28;20146;-61
2021/12/22 02:17:11;;;;;;;30.42;15.55;;;-1.70;99.90;;;;;;5057136;28;20033;-61
2021/12/22 02:19:44;;;;;;;24.65;14.45;;;-1.70;99.90;;;;;;5042621;28;20133;-61
2021/12/22 02:22:12;;;;;;;24.83;15.25;;;-1.70;99.90;;;;;;5031565;28;20080;-61
2021/12/22 02:24:38;;;;;;;22.70;14.10;;;-1.70;99.90;;;;;;5062577;28;20055;-61
2021/12/22 02:27:11;;;;;;;22.15;14.00;;;-1.70;99.90;;;;;;5059190;28;20048;-61
2021/12/22 02:29:39;;;;;;;24.75;14.15;;;-1.70;99.90;;;;;;5024718;28;20568;-61
2021/12/22 02:32:18;;;;;;;24.42;15.15;;;-1.70;99.90;;;;;;5061912;28;20063;-61
2021/12/22 02:34:47;;;;;;;22.95;14.65;;;-1.70;99.90;;;;;;5044262;28;20048;-61
2021/12/22 02:37:17;;;;;;;22.55;14.52;;;-1.80;99.90;;;;;;5043065;28;20071;-61
2021/12/22 02:39:58;;;;;;;22.92;13.77;;;-1.80;99.90;;;;;;5024511;28;20057;-61
2021/12/22 02:42:27;;;;;;;25.67;14.38;;;-1.80;99.90;;;;;;5048169;28;20052;-61
2021/12/22 02:44:53;;;;;;;26.25;14.65;;;-1.80;99.90;;;;;;5044163;28;20045;-62
2021/12/22 02:47:21;;;;;;;24.43;13.53;;;-1.80;99.90;;;;;;5044107;28;20044;-61
2021/12/22 02:49:47;;;;;;;22.13;14.48;;;-1.80;99.90;;;;;;5028593;28;20045;-61
2021/12/22 02:52:13;;;;;;;22.80;14.18;;;-1.90;99.90;;;;;;5031135;28;20059;-61
2021/12/22 02:54:49;;;;;;;22.38;13.68;;;-1.80;99.90;;;;;;5062297;28;20134;-61
2021/12/22 02:57:28;;;;;;;24.45;14.82;;;-1.80;99.90;;;;;;5043679;28;20126;-62
2021/12/22 03:02:57;;;;;;;23.20;14.85;;;-1.90;99.90;;;;;;4945220;29;20062;-61
2021/12/22 03:05:24;;;;;;;22.70;14.00;;;-1.90;99.90;;;;;;4962763;28;20164;-61
2021/12/22 03:07:50;;;;;;;21.95;14.18;;;-1.90;99.90;;;;;;4950698;29;20079;-61
2021/12/22 03:10:18;;;;;;;21.88;14.25;;;-1.90;99.90;;;;;;4965128;29;20106;-61
2021/12/22 03:12:51;;;;;;;25.58;14.43;;;-1.90;99.90;;;;;;4976304;28;20063;-61
2021/12/22 03:15:22;;;;;;;27.08;13.57;;;-1.90;99.90;;;;;;4961770;28;20074;-61
2021/12/22 03:17:50;;;;;;;22.75;14.13;;;-1.90;99.90;;;;;;4968537;28;20051;-61
2021/12/22 03:20:16;;;;;;;21.13;13.77;;;-1.90;99.90;;;;;;4948596;29;20059;-61
2021/12/22 03:22:45;;;;;;;22.90;14.45;;;-1.90;99.90;;;;;;4948704;29;20436;-61
2021/12/22 03:25:16;;;;;;;24.42;14.27;;;-1.90;99.90;;;;;;4949012;29;20186;-61
2021/12/22 03:27:44;;;;;;;23.33;14.50;;;-1.90;99.90;;;;;;4964671;29;20051;-61
2021/12/22 03:30:14;;;;;;;23.85;13.73;;;-1.90;99.90;;;;;;4949370;29;20047;-61
2021/12/22 03:32:40;;;;;;;30.58;14.68;;;-1.90;99.90;;;;;;4947858;29;20114;-61
2021/12/22 03:35:08;;;;;;;24.25;14.30;;;-1.90;99.90;;;;;;4933533;29;20055;-61
2021/12/22 03:37:33;;;;;;;25.02;15.48;;;-1.90;99.90;;;;;;4948139;29;20067;-61
2021/12/22 03:39:59;;;;;;;23.13;13.77;;;-1.90;99.90;;;;;;5025641;28;21359;-61
2021/12/22 03:42:25;;;;;;;23.23;13.90;;;-2.00;99.90;;;;;;5044537;28;20296;-61
2021/12/22 03:44:51;;;;;;;26.33;13.80;;;-2.00;99.90;;;;;;5070618;28;20276;-61
2021/12/22 03:47:16;;;;;;;23.73;14.30;;;-2.00;99.90;;;;;;5049721;28;20076;-61
2021/12/22 03:49:42;;;;;;;26.50;14.47;;;-2.00;99.90;;;;;;5047271;28;20049;-61
2021/12/22 03:52:08;;;;;;;23.17;13.63;;;-2.00;99.90;;;;;;5063964;28;20301;-62
2021/12/22 03:54:33;;;;;;;22.87;13.10;;;-2.00;99.90;;;;;;5045818;28;20045;-61
2021/12/22 03:56:59;;;;;;;22.92;14.15;;;-2.00;99.90;;;;;;5060496;28;20481;-61
2021/12/22 03:59:26;;;;;;;24.52;13.82;;;-2.00;99.90;;;;;;5046705;28;20152;-61
2021/12/22 04:01:52;;;;;;;22.10;13.68;;;-2.00;99.90;;;;;;5047108;28;20052;-61
2021/12/22 04:04:18;;;;;;;23.40;14.73;;;-2.00;99.90;;;;;;5063750;28;20049;-61
2021/12/22 04:06:47;;;;;;;22.77;14.43;;;-2.10;99.90;;;;;;5046827;28;20131;-62
2021/12/22 04:09:14;;;;;;;23.40;13.90;;;-2.10;99.90;;;;;;5046530;28;20049;-61
2021/12/22 04:11:41;;;;;;;24.73;15.27;;;-2.10;99.90;;;;;;5046557;28;20057;-61
2021/12/22 04:14:06;;;;;;;26.80;15.07;;;-2.10;99.90;;;;;;5073553;28;20081;-61
2021/12/22 04:16:33;;;;;;;21.33;13.37;;;-2.10;99.90;;;;;;5026152;28;20392;-61
2021/12/22 04:18:59;;;;;;;25.58;14.35;;;-2.10;99.90;;;;;;5044703;28;20355;-61
2021/12/22 04:21:25;;;;;;;22.17;13.57;;;-2.10;99.90;;;;;;5064727;28;20067;-61
2021/12/22 04:23:50;;;;;;;23.25;14.68;;;-2.10;99.90;;;;;;5045777;28;20060;-61
2021/12/22 04:26:16;;;;;;;28.88;15.07;;;-2.20;99.90;;;;;;5037377;28;20045;-61
2021/12/22 04:28:42;;;;;;;24.27;14.50;;;-2.20;99.90;;;;;;5042614;28;20053;-61
2021/12/22 04:31:08;;;;;;;25.23;14.13;;;-2.20;99.90;;;;;;5030862;28;20046;-61
2021/12/22 04:33:34;;;;;;;26.63;15.43;;;-2.20;99.90;;;;;;5028269;28;20056;-61
2021/12/22 04:36:00;;;;;;;28.27;15.07;;;-2.20;99.90;;;;;;5039357;28;20054;-61
2021/12/22 04:38:26;;;;;;;27.40;15.57;;;-2.20;99.90;;;;;;5025985;28;20061;-61
2021/12/22 04:40:52;;;;;;;25.15;14.48;;;-2.20;99.90;;;;;;5041265;28;20069;-61
2021/12/22 04:43:17;;;;;;;22.70;14.30;;;-2.20;99.90;;;;;;5043346;28;20057;-61
2021/12/22 04:45:43;;;;;;;24.15;15.07;;;-2.30;99.90;;;;;;5039880;28;20062;-61
2021/12/22 04:48:10;;;;;;;29.50;16.20;;;-2.30;99.90;;;;;;5052801;28;20041;-61
2021/12/22 04:50:36;;;;;;;24.67;14.70;;;-2.30;99.90;;;;;;5024235;28;20331;-62
2021/12/22 04:53:10;;;;;;;27.55;14.52;;;-2.30;99.90;;;;;;5022559;28;20054;-61
2021/12/22 04:55:36;;;;;;;24.83;14.75;;;-2.30;99.90;;;;;;5024835;28;20065;-61
2021/12/22 04:58:02;;;;;;;25.17;13.80;;;-2.30;99.90;;;;;;5039854;28;20049;-61
2021/12/22 05:00:31;;;;;;;23.02;14.80;;;-2.30;99.90;;;;;;5041252;28;20053;-61
2021/12/22 05:02:57;;;;;;;29.27;15.23;;;-2.30;99.90;;;;;;5043942;28;20123;-61
2021/12/22 05:05:24;;;;;;;22.67;13.93;;;-2.30;99.90;;;;;;5043485;28;20040;-62
2021/12/22 05:07:49;;;;;;;27.50;15.73;;;-2.30;99.90;;;;;;5032000;28;20046;-61
2021/12/22 05:10:16;;;;;;;20.87;13.40;;;-2.40;99.90;;;;;;5025753;28;20044;-61
2021/12/22 05:12:43;;;;;;;23.33;13.88;;;-2.40;99.90;;;;;;5042406;28;20042;-61
2021/12/22 05:15:10;;;;;;;25.63;13.70;;;-2.40;99.90;;;;;;5040522;28;20350;-61
2021/12/22 05:20:12;;;;;;;20.30;14.07;;;-2.30;99.90;;;;;;5039281;28;20060;-62
2021/12/22 05:22:38;;;;;;;21.27;13.35;;;-2.30;99.90;;;;;;5042103;28;20054;-61
2021/12/22 05:25:06;;;;;;;24.75;13.32;;;-2.30;99.90;;;;;;5040097;28;20053;-61
2021/12/22 05:27:32;;;;;;;22.73;13.68;;;-2.40;99.90;;;;;;5041863;28;20060;-61
2021/12/22 05:29:58;;;;;;;20.85;12.93;;;-2.40;99.90;;;;;;5060506;28;20064;-61
2021/12/22 05:32:30;;;;;;;23.48;13.73;;;-2.40;99.90;;;;;;5063535;28;20140;-61
2021/12/22 05:34:57;;;;;;;21.13;13.13;;;-2.30;99.90;;;;;;5044982;28;20040;-61
2021/12/22 05:37:23;;;;;;;21.83;14.00;;;-2.30;99.90;;;;;;5027771;28;20072;-61
2021/12/22 05:39:48;;;;;;;24.37;13.10;;;-2.40;99.90;;;;;;5052242;28;20041;-61
2021/12/22 05:42:14;;;;;;;23.03;13.00;;;-2.40;99.90;;;;;;5044918;28;20101;-61
2021/12/22 05:44:41;;;;;;;18.67;12.93;;;-2.40;99.90;;;;;;5063324;28;20036;-61
2021/12/22 05:47:07;;;;;;;18.27;12.68;;;-2.40;99.90;;;;;;5062766;28;20310;-61
2021/12/22 05:49:32;;;;;;;20.37;12.53;;;-2.40;99.90;;;;;;5029206;28;20061;-60
2021/12/22 05:51:58;;;;;;;22.13;12.70;;;-2.40;99.90;;;;;;5062452;28;20304;-61
2021/12/22 05:54:23;;;;;;;18.87;11.93;;;-2.40;99.90;;;;;;5044920;28;20056;-61
2021/12/22 05:56:49;;;;;;;21.00;12.83;;;-2.40;99.90;;;;;;5062897;28;20078;-61
2021/12/22 05:59:15;;;;;;;23.83;14.10;;;-2.40;99.90;;;;;;5045442;28;20049;-61
2021/12/22 06:01:40;;;;;;;21.57;13.07;;;-2.40;99.90;;;;;;5037725;28;20469;-61
2021/12/22 06:04:07;;;;;;;23.00;13.23;;;-2.40;99.90;;;;;;5044827;28;20045;-61
2021/12/22 06:06:33;;;;;;;24.75;13.15;;;-2.40;99.90;;;;;;5041346;28;20045;-61
2021/12/22 06:08:58;;;;;;;20.80;13.75;;;-2.40;99.90;;;;;;5043772;28;20045;-61
2021/12/22 06:11:24;;;;;;;19.37;12.47;;;-2.40;99.90;;;;;;5055769;28;20033;-61
2021/12/22 06:13:50;;;;;;;29.23;13.57;;;-2.40;99.90;;;;;;5062612;28;20044;-61
2021/12/22 06:16:15;;;;;;;21.13;13.27;;;-2.50;99.90;;;;;;5053044;28;20083;-61
2021/12/22 06:18:44;;;;;;;20.27;11.97;;;-2.50;99.90;;;;;;5059974;28;20154;-61
2021/12/22 06:21:11;;;;;;;25.58;13.43;;;-2.50;99.90;;;;;;5052421;28;20041;-62
2021/12/22 06:23:38;;;;;;;20.88;13.15;;;-2.50;99.90;;;;;;5077601;28;20056;-61
2021/12/22 06:26:03;;;;;;;25.58;13.38;;;-2.50;99.90;;;;;;5043698;28;20056;-61
2021/12/22 06:28:29;;;;;;;25.75;14.40;;;-2.50;99.90;;;;;;5044483;28;20060;-60
2021/12/22 06:30:55;;;;;;;25.57;13.63;;;-2.50;99.90;;;;;;5050250;28;20051;-61
2021/12/22 06:33:22;;;;;;;27.20;14.30;;;-2.50;99.90;;;;;;5060673;28;20053;-60
2021/12/22 06:35:48;;;;;;;26.63;14.20;;;-2.50;99.90;;;;;;5062735;28;20154;-60
2021/12/22 06:38:15;;;;;;;24.80;14.25;;;-2.50;99.90;;;;;;5043789;28;20056;-61
2021/12/22 06:40:42;;;;;;;24.33;14.10;;;-2.50;99.90;;;;;;5053843;28;20034;-61
2021/12/22 06:43:07;;;;;;;;;;;-2.50;99.90;;;;;;5062452;28;20053;-60
2021/12/22 06:45:33;;;;;;;23.63;12.60;;;-2.50;99.90;;;;;;5062320;28;19922;-61
2021/12/22 06:47:59;;;;;;;27.63;14.20;;;-2.50;99.90;;;;;;5044037;28;20098;-61
2021/12/22 06:50:25;;;;;;;22.43;13.13;;;-2.60;99.90;;;;;;5061594;28;20064;-59
2021/12/22 06:52:50;;;;;;;22.50;13.68;;;-2.60;99.90;;;;;;5056747;28;20071;-59
2021/12/22 06:55:17;;;;;;;23.90;14.17;;;-2.50;99.90;;;;;;5036214;28;20037;-59
2021/12/22 06:57:43;;;;;;;27.40;13.05;;;-2.50;99.90;;;;;;5044312;28;20045;-60
2021/12/22 07:00:11;;;;;;;26.27;13.03;;;-2.60;99.90;;;;;;5044636;28;20049;-59
2021/12/22 07:02:38;;;;;;;28.88;14.93;;;-2.50;99.90;;;;;;5030083;28;20188;-60
2021/12/22 07:05:06;;;;;;;28.45;14.23;;;-2.50;99.90;;;;;;5044501;28;20064;-60
2021/12/22 07:07:32;;;;;;;25.70;14.85;;;-2.60;99.90;;;;;;5061950;28;20515;-59
2021/12/22 07:09:58;;;;;;;25.93;14.00;;;-2.60;99.90;;;;;;5044734;28;20057;-60
2021/12/22 07:12:24;;;;;;;26.23;14.63;;;-2.60;99.90;;;;;;5056430;28;20053;-56
2021/12/22 07:14:50;;;;;;;23.33;12.90;;;-2.60;99.90;;;;;;5042148;28;20479;-59
2021/12/22 07:17:16;;;;;;;31.27;16.00;;;-2.60;99.90;;;;;;5061636;28;20091;-59
2021/12/22 07:19:41;;;;;;;23.17;13.30;;;-2.60;99.90;;;;;;5043499;28;20136;-60
2021/12/22 07:22:07;;;;;;;28.90;14.33;;;-2.60;99.90;;;;;;5043664;28;20040;-60
2021/12/22 07:24:33;;;;;;;28.23;14.00;;;-2.60;99.90;;;;;;5041172;28;20040;-60
2021/12/22 07:26:59;;;;;;;27.23;14.18;;;-2.60;99.90;;;;;;5058566;28;20045;-59
2021/12/22 07:29:25;;;;;;;28.87;15.27;;;-2.60;99.90;;;;;;5040458;28;20064;-60
2021/12/22 07:31:50;;;;;;;24.17;13.57;;;-2.60;99.90;;;;;;5037752;28;20307;-59
2021/12/22 07:34:27;;;;;;;27.57;14.30;;;-2.50;99.90;;;;;;5037633;28;20048;-60
2021/12/22 07:37:22;;;;;;;23.95;14.80;;;-2.50;99.90;;;;;;5043243;28;20087;-59
2021/12/22 07:39:48;;;;;;;26.67;13.60;;;-2.40;99.90;;;;;;5043526;28;20047;-60
2021/12/22 07:42:13;;;;;;;27.05;14.35;;;-2.40;99.90;;;;;;5061489;28;20041;-59
2021/12/22 07:44:39;;;;;;;22.52;13.23;;;-2.40;99.90;;;;;;5041640;28;20125;-60
2021/12/22 07:47:05;;;;;;;24.93;13.43;;;-2.40;99.90;;;;;;5061667;28;20037;-60
2021/12/22 07:49:31;;;;;;;33.60;14.87;;;-2.40;99.90;;;;;;5043681;28;20322;-60
2021/12/22 07:51:56;;;;;;;26.87;14.17;;;-2.40;99.90;;;;;;5045762;28;20287;-61
2021/12/22 07:54:22;;;;;;;29.23;13.13;;;-2.30;99.90;;;;;;5046438;28;20045;-59
2021/12/22 07:56:48;;;;;;;25.07;13.63;;;-2.30;99.90;;;;;;5045431;28;20061;-60
2021/12/22 07:59:13;;;;;;;24.37;13.60;;;-2.30;99.90;;;;;;5031685;28;20083;-59
2021/12/22 08:01:40;;;;;;;22.50;13.00;;;-2.30;99.90;;;;;;5045864;28;20128;-59
2021/12/22 08:04:06;;;;;;;27.83;15.05;;;-2.30;99.90;;;;;;5046908;28;20108;-60
2021/12/22 08:06:31;;;;;;;24.67;13.63;;;-2.30;99.90;;;;;;5065384;28;20045;-59
2021/12/22 08:08:57;;;;;;;33.23;14.37;;;-2.30;99.90;;;;;;5064826;28;20037;-63
2021/12/22 08:11:22;;;;;;;26.63;13.20;;;-2.20;99.90;;;;;;5047087;28;20071;-60
2021/12/22 08:13:48;;;;;;;28.23;14.20;;;-2.20;99.90;;;;;;5038796;28;20037;-59
2021/12/22 08:16:14;;;;;;;26.10;13.43;;;-2.30;99.90;;;;;;5046791;28;20049;-60
2021/12/22 08:18:45;;;;;;;24.38;13.45;;;-2.20;99.90;;;;;;5046012;28;20041;-60
2021/12/22 08:21:11;;;;;;;28.63;14.15;;;-2.20;99.90;;;;;;5029585;28;20278;-60
2021/12/22 08:23:36;;;;;;;23.80;14.40;;;-2.20;99.90;;;;;;5012361;28;20505;-59
2021/12/22 08:26:02;;;;;;;21.17;12.40;;;-2.10;99.90;;;;;;5064159;28;20158;-60
2021/12/22 08:28:28;;;;;;;23.85;13.38;;;-2.10;99.90;;;;;;5046743;28;20049;-61
2021/12/22 08:30:54;;;;;;;20.73;12.20;;;-2.10;99.90;;;;;;5040996;28;20124;-60
2021/12/22 08:33:21;;;;;;;22.73;13.07;;;-2.10;99.90;;;;;;5046193;28;20041;-60
2021/12/22 08:38:50;;;;;;;24.73;12.93;;;-2.00;99.90;;;;;;5002078;28;20109;-59
2021/12/22 08:41:22;;;;;;;21.83;13.10;;;-2.00;99.90;;;;;;4989147;28;20105;-60
2021/12/22 08:43:50;;;;;;;22.88;12.77;;;-2.00;99.90;;;;;;5003018;28;20417;-60
2021/12/22 08:46:16;;;;;;;22.45;12.85;;;-2.00;99.90;;;;;;4969649;28;20081;-60
2021/12/22 08:48:42;;;;;;;25.33;14.23;;;-1.90;99.90;;;;;;4985222;28;20111;-59
2021/12/22 08:51:09;;;;;;;24.77;12.80;;;-1.90;99.90;;;;;;4985803;28;20482;-59
2021/12/22 08:53:34;;;;;;;21.60;13.57;;;-1.80;99.90;;;;;;5005147;28;20126;-59
2021/12/22 08:56:00;;;;;;;25.27;13.35;;;-1.80;99.90;;;;;;5022185;28;20109;-59
2021/12/22 08:58:26;;;;;;;26.10;13.52;;;-1.70;99.90;;;;;;5021964;28;20148;-59
2021/12/22 09:00:52;;;;;;;25.38;13.10;;;-1.70;99.90;;;;;;5022046;28;20065;-59
2021/12/22 09:03:18;;;;;;;22.23;13.45;;;-1.60;99.90;;;;;;4999320;28;20065;-60
2021/12/22 09:05:43;;;;;;;24.13;12.53;;;-1.60;99.90;;;;;;4986130;28;20081;-60
2021/12/22 09:08:09;;;;;;;23.33;13.17;;;-1.50;99.90;;;;;;5001888;28;20373;-61
2021/12/22 09:10:35;;;;;;;28.37;14.57;;;-1.50;99.90;;;;;;5002174;28;20042;-60
2021/12/22 09:13:00;;;;;;;23.83;13.27;;;-1.50;99.90;;;;;;5007276;28;20045;-61
2021/12/22 09:15:26;;;;;;;23.05;11.60;;;-1.40;99.90;;;;;;5022474;28;20134;-59
2021/12/22 09:17:52;;;;;;;23.10;12.63;;;-1.40;99.90;;;;;;5035668;28;20052;-59
2021/12/22 09:20:19;;;;;;;23.53;13.60;;;-1.30;99.90;;;;;;5028757;28;20164;-59
2021/12/22 09:22:45;;;;;;;27.13;13.13;;;-1.30;99.90;;;;;;5045656;28;20532;-61
2021/12/22 09:25:13;;;;;;;25.38;13.48;;;-1.20;99.90;;;;;;5063658;28;20041;-63
2021/12/22 09:27:39;;;;;;;22.00;12.60;;;-1.20;99.90;;;;;;5059423;28;20053;-62
2021/12/22 09:30:06;;;;;;;25.83;13.45;;;-1.10;99.90;;;;;;5063840;28;20060;-63
2021/12/22 09:32:32;;;;;;;22.15;12.75;;;-1.10;99.90;;;;;;5044571;28;20048;-61
2021/12/22 09:34:58;;;;;;;26.40;13.38;;;-1.10;99.90;;;;;;5063183;28;20048;-61
2021/12/22 09:37:23;;;;;;;29.08;13.70;;;-1.00;99.90;;;;;;5028177;28;20090;-59
2021/12/22 09:39:49;;;;;;;27.70;13.63;;;-1.10;99.90;;;;;;5045138;28;20101;-57
2021/12/22 09:42:16;;;;;;;26.58;13.93;;;-1.00;99.90;;;;;;5044258;28;20052;-60
2021/12/22 09:44:46;;;;;;;;;;;-1.00;99.90;;;;;;5025837;28;20075;-60
2021/12/22 09:47:14;;;;;;;24.27;13.43;;;-1.00;99.90;;;;;;5054605;28;19924;-59
2021/12/22 09:52:17;;;;;;;25.13;13.60;;;-1.00;99.90;;;;;;5061256;28;20080;-60
2021/12/22 09:54:44;;;;;;;24.60;13.25;;;-1.00;99.90;;;;;;5061235;28;20124;-58
2021/12/22 09:57:11;;;;;;;25.25;12.98;;;-1.00;99.90;;;;;;5062952;28;20124;-62
2021/12/22 09:59:39;;;;;;;25.20;12.88;;;-0.90;99.90;;;;;;5044996;28;20056;-59
2021/12/22 10:02:05;;;;;;;25.92;13.15;;;-0.90;99.90;;;;;;5062865;28;20041;-60
2021/12/22 10:04:32;;;;;;;23.27;12.80;;;-0.80;99.90;;;;;;5040639;28;20053;-59
2021/12/22 10:06:57;;;;;;;;;;;-0.80;99.90;;;;;;5063124;28;20048;-60
2021/12/22 10:09:24;;;;;;;23.10;12.73;;;-0.80;99.90;;;;;;5043682;28;19921;-59
2021/12/22 10:11:50;;;;;;;;;;;-0.80;99.90;;;;;;5043517;28;20136;-59
2021/12/22 10:14:22;;;;;;;21.75;11.73;;;-0.80;99.90;;;;;;5061293;28;19920;-59
2021/12/22 10:16:51;;;;;;;18.90;10.45;;;-0.70;99.90;;;;;;5044724;28;20052;-60
2021/12/22 10:19:18;;;;;;;20.17;12.60;;;-0.70;99.90;;;;;;5037067;28;20057;-59
2021/12/22 10:21:59;;;;;;;22.80;11.90;;;-0.70;99.90;;;;;;5050537;28;20041;-60
2021/12/22 10:24:34;;;;;;;22.42;11.98;;;-0.70;99.90;;;;;;5061772;28;20060;-60
2021/12/22 10:27:09;;;;;;;25.83;13.32;;;-0.60;99.90;;;;;;5043896;28;20063;-59
2021/12/22 10:29:35;;;;;;;23.48;11.98;;;-0.60;99.90;;;;;;5044012;28;20055;-58
2021/12/22 10:32:14;;;;;;;26.75;12.63;;;-0.60;99.90;;;;;;5044519;28;20049;-59
2021/12/22 10:35:02;;;;;;;22.20;12.05;;;-0.60;99.90;;;;;;5033776;28;20037;-59
2021/12/22 10:37:39;;;;;;;26.88;12.30;;;-0.60;99.90;;;;;;5043640;28;20048;-60
2021/12/22 10:40:24;;;;;;;;;;;-0.50;99.90;;;;;;5025635;28;20084;-59
2021/12/22 10:42:50;;;;;;;22.00;11.98;;;-0.50;99.90;;;;;;5008526;28;20274;-59
2021/12/22 10:45:17;;;;;;;;;;;-0.50;99.90;;;;;;5043311;28;20113;-59
2021/12/22 10:50:37;;;;;;;20.95;11.77;;;-0.50;99.90;;;;;;5057067;28;20048;-59
2021/12/22 10:53:04;;;;;;;27.13;11.65;;;-0.50;99.90;;;;;;5062324;28;20112;-59
2021/12/22 10:55:45;;;;;;;25.33;12.68;;;-0.50;99.90;;;;;;5056060;28;20041;-59
2021/12/22 10:58:24;;;;;;;23.17;13.05;;;-0.40;99.90;;;;;;5060948;28;20063;-59
2021/12/22 11:01:04;;;;;;;21.90;13.05;;;-0.40;99.90;;;;;;5062495;28;20041;-61
2021/12/22 11:03:46;;;;;;;23.88;13.05;;;-0.40;99.90;;;;;;5041921;28;20056;-59
2021/12/22 11:06:23;;;;;;;20.15;12.15;;;-0.40;99.90;;;;;;5043611;28;20105;-61
2021/12/22 11:09:00;;;;;;;22.05;12.02;;;-0.40;99.90;;;;;;5043917;28;20088;-61
2021/12/22 11:11:36;;;;;;;22.42;12.75;;;-0.40;99.90;;;;;;5062075;28;20041;-62
2021/12/22 11:14:14;;;;;;;20.80;11.38;;;-0.40;99.90;;;;;;5026349;28;20385;-59
2021/12/22 11:16:54;;;;;;;22.63;12.55;;;-0.40;99.90;;;;;;5033274;28;20076;-62
2021/12/22 11:19:26;;;;;;;21.05;12.25;;;-0.40;99.90;;;;;;5043703;28;20040;-59
2021/12/22 11:22:05;;;;;;;19.55;11.93;;;-0.40;99.90;;;;;;5043489;28;20119;-59
2021/12/22 11:24:36;;;;;;;20.70;12.10;;;-0.40;99.90;;;;;;5058258;28;20106;-58
2021/12/22 11:27:04;;;;;;;23.70;12.60;;;-0.30;99.90;;;;;;5045664;28;20059;-58
2021/12/22 11:29:32;;;;;;;22.77;12.48;;;-0.30;99.90;;;;;;5066084;28;20049;-58
2021/12/22 11:31:58;;;;;;;22.98;12.82;;;-0.30;99.90;;;;;;5062934;28;20226;-58
2021/12/22 11:34:29;;;;;;;24.15;13.13;;;-0.30;99.90;;;;;;5037648;28;20196;-58
2021/12/22 11:36:56;;;;;;;22.75;12.48;;;-0.30;99.90;;;;;;5064477;28;20380;-58
2021/12/22 11:39:22;;;;;;;19.10;12.52;;;-0.30;99.90;;;;;;5066130;28;20049;-58
2021/12/22 11:41:57;;;;;;;19.92;11.85;;;-0.30;99.90;;;;;;5047658;28;20051;-58
2021/12/22 11:44:28;;;;;;;21.13;11.98;;;-0.30;99.90;;;;;;5042698;28;20069;-59
2021/12/22 11:46:59;;;;;;;19.13;11.20;;;-0.20;99.90;;;;;;5028158;28;20099;-59
2021/12/22 11:49:25;;;;;;;22.60;12.65;;;-0.20;99.90;;;;;;5059308;28;20535;-59
2021/12/22 11:51:52;;;;;;;20.67;12.07;;;-0.20;99.90;;;;;;5047051;28;20036;-59
2021/12/22 11:54:25;;;;;;;22.15;12.70;;;-0.20;99.90;;;;;;5064914;28;20089;-58
2021/12/22 11:56:53;;;;;;;18.20;10.55;;;-0.10;99.90;;;;;;5064471;28;20041;-58
2021/12/22 11:59:24;;;;;;;21.23;12.25;;;-0.10;99.90;;;;;;5065604;28;20049;-58
2021/12/22 12:02:16;;;;;;;18.52;11.48;;;-0.20;99.90;;;;;;5046859;28;20049;-59
2021/12/22 12:04:42;;;;;;;19.42;12.13;;;-0.20;99.90;;;;;;5065401;28;20041;-58
2021/12/22 12:07:08;;;;;;;21.05;10.75;;;-0.20;99.90;;;;;;5055043;28;20045;-61
2021/12/22 12:09:34;;;;;;;19.55;12.15;;;-0.20;99.90;;;;;;5046541;28;20053;-60
2021/12/22 12:12:04;;;;;;;18.92;11.43;;;-0.20;99.90;;;;;;5065504;28;20055;-59
2021/12/22 12:23:26;;;;;;;21.75;12.13;;;-0.20;99.90;;;;;;5061538;28;20045;-59
2021/12/22 12:25:53;;;;;;;19.67;11.65;;;-0.20;99.90;;;;;;5043627;28;20056;-59
2021/12/22 12:28:19;;;;;;;17.65;11.50;;;-0.20;99.90;;;;;;5036426;28;20057;-61
2021/12/22 12:30:51;;;;;;;22.05;11.98;;;-0.20;99.90;;;;;;5036964;28;20097;-59
2021/12/22 12:33:20;;;;;;;19.70;11.73;;;-0.20;99.90;;;;;;5064536;28;20112;-59
2021/12/22 12:35:52;;;;;;;24.50;12.27;;;-0.20;99.90;;;;;;5047638;28;20102;-59
2021/12/22 12:38:49;;;;;;;19.95;12.45;;;-0.10;99.90;;;;;;5045003;28;20056;-59
2021/12/22 12:41:20;;;;;;;19.70;11.68;;;-0.10;99.90;;;;;;5044174;28;20067;-59
2021/12/22 12:43:55;;;;;;;18.05;11.07;;;-0.10;99.90;;;;;;5046132;28;20044;-58
2021/12/22 12:46:21;;;;;;;17.58;11.38;;;0.00;99.90;;;;;;5046703;28;20102;-58
2021/12/22 12:49:08;;;;;;;17.57;11.77;;;0.00;99.90;;;;;;5046104;28;20049;-59
2021/12/22 12:51:56;;;;;;;17.63;12.40;;;0.00;99.90;;;;;;5041539;28;20079;-59
2021/12/22 12:54:22;;;;;;;20.65;11.38;;;0.00;99.90;;;;;;5042286;28;20077;-59
2021/12/22 12:56:49;;;;;;;20.77;12.45;;;0.00;99.90;;;;;;5046393;28;20067;-59
2021/12/22 12:59:27;;;;;;;19.10;11.90;;;0.00;99.90;;;;;;5045889;28;20064;-59